Route Details

Aircraft Information
Group: European Fleet
Types: A30F, B738
Route Data
Distance: 1000nm
Duration: 3h 04m
Origin METAR: LPPT 260200Z 31004KT 9999 FEW006 BKN008 17/16 Q1019
Dest. METAR: EDDK 260150Z AUTO 13003KT CAVOK 10/10 Q1017 NOSIG
Freight Data
(for May 26, 2024)
Load Factor:
76%
Manifested Cargo: 50,482lbs
Financial History
Total Freight: 225,959lbs
Average Load: 0lbs/flt
Fuel Used: 116,375lbs
Avg. Fuel Used: 0lbs/flt
Fuel Expense: $45,208
Avg. Fuel Expense: $0
Avg. Fuel Cost: $0/lbs
Total Gross Income: $497,113
Pilot Pay: $1,325
Total Expenses: $95,739
Total Revenue: $351,183
Average Revenue: $0

Capitol Logistics 536




LPPT
Aeroporto da Portela de Sacavem
Lisbon, PT
EDDK
Cologne Bonn Airport
Cologne, DE